createdAt,value
2023-03-21T00:01:17.147Z,99760.47
2023-03-21T00:04:50.799Z,99755.47
2023-03-21T00:08:15.848Z,99757.13
2023-03-21T00:11:37.769Z,99763.13
2023-03-21T00:15:06.200Z,99758.91
2023-03-21T00:18:28.848Z,99769.22
2023-03-21T00:22:06.491Z,99762.28
2023-03-21T00:25:30.154Z,99760.56
2023-03-21T00:28:52.266Z,99765.81
2023-03-21T00:32:14.202Z,99763.28
2023-03-21T00:35:57.886Z,99765.13
2023-03-21T00:39:17.427Z,99775.47
2023-03-21T00:42:40.721Z,99775.56
2023-03-21T00:46:03.114Z,99775.75
2023-03-21T00:49:25.322Z,99772.28
2023-03-21T00:52:47.278Z,99771.50
2023-03-21T00:56:10.081Z,99775.84
2023-03-21T00:59:33.632Z,99780.22
2023-03-21T01:03:04.420Z,99776.91
2023-03-21T01:06:30.542Z,99769.16
2023-03-21T01:09:52.574Z,99770.91
2023-03-21T01:13:16.626Z,99763.31
2023-03-21T01:16:40.274Z,99766.63
2023-03-21T01:20:01.846Z,99731.03
2023-03-21T01:23:27.372Z,99756.31
2023-03-21T01:26:49.221Z,99751.25
2023-03-21T01:30:20.264Z,99764.91
2023-03-21T01:33:46.319Z,99756.41
2023-03-21T01:37:08.367Z,99752.16
2023-03-21T01:40:31.720Z,99755.38
2023-03-21T01:43:53.799Z,99765.63
2023-03-21T01:47:15.558Z,99752.31
2023-03-21T01:50:40.074Z,99764.19
2023-03-21T01:54:02.437Z,99770.19
2023-03-21T01:57:41.025Z,99769.38
2023-03-21T02:01:06.637Z,99771.22
2023-03-21T02:04:30.468Z,99766.09
2023-03-21T02:07:53.922Z,99756.69
2023-03-21T02:11:17.045Z,99759.38
2023-03-21T02:14:40.906Z,99766.09
2023-03-21T02:18:09.338Z,99767.03
2023-03-21T02:22:12.885Z,99762.00
2023-03-21T02:25:56.481Z,99766.25
2023-03-21T02:29:38.528Z,99744.25
2023-03-21T02:33:21.705Z,99773.16
2023-03-21T02:36:53.282Z,99773.19
2023-03-21T02:40:21.378Z,99761.50
2023-03-21T02:43:48.703Z,99780.19
2023-03-21T02:47:15.040Z,99774.28
2023-03-21T02:50:42.014Z,99770.16
2023-03-21T02:54:28.285Z,99782.75
2023-03-21T02:57:54.308Z,99788.06
2023-03-21T03:01:16.264Z,99781.25
2023-03-21T03:04:38.398Z,99779.75
2023-03-21T03:08:12.878Z,99791.56
2023-03-21T03:11:38.511Z,99786.47
2023-03-21T03:15:10.023Z,99796.00
2023-03-21T03:18:40.011Z,99800.34
2023-03-21T03:22:07.722Z,99804.78
2023-03-21T03:25:42.846Z,99804.75
2023-03-21T03:29:09.991Z,99793.78
2023-03-21T03:32:37.293Z,99799.53
2023-03-21T03:36:06.805Z,99803.94
2023-03-21T03:39:34.460Z,99798.84
2023-03-21T03:43:00.927Z,99816.88
2023-03-21T03:46:29.899Z,99810.03
2023-03-21T03:49:57.015Z,99801.56
2023-03-21T03:53:24.094Z,99808.41
2023-03-21T03:56:47.323Z,99817.81
2023-03-21T04:00:13.119Z,99814.47
2023-03-21T04:03:48.374Z,99818.81
2023-03-21T04:07:12.189Z,99808.66
2023-03-21T04:10:34.054Z,99814.59
2023-03-21T04:13:55.715Z,99817.25
2023-03-21T04:17:18.881Z,99811.25
2023-03-21T04:20:45.197Z,99830.94
2023-03-21T04:24:08.514Z,99815.75
2023-03-21T04:27:30.548Z,99831.78
2023-03-21T04:31:02.508Z,99823.25
2023-03-21T04:34:28.911Z,99819.72
2023-03-21T04:37:52.881Z,99821.41
2023-03-21T04:41:15.110Z,99819.72
2023-03-21T04:44:37.256Z,99820.59
2023-03-21T04:47:59.464Z,99831.84
2023-03-21T04:51:21.240Z,99785.41
2023-03-21T04:54:44.711Z,99850.06
2023-03-21T04:58:07.412Z,99841.53
2023-03-21T05:01:30.826Z,99850.94
2023-03-21T05:04:52.813Z,99856.09
2023-03-21T05:08:15.642Z,99856.22
2023-03-21T05:11:41.454Z,99873.38
2023-03-21T05:15:03.095Z,99884.63
2023-03-21T05:18:26.552Z,99891.50
2023-03-21T05:21:48.998Z,99883.81
2023-03-21T05:25:11.928Z,99896.75
2023-03-21T05:28:37.003Z,99901.06
2023-03-21T05:31:59.151Z,99901.00
2023-03-21T05:35:21.117Z,99880.84
2023-03-21T05:38:46.231Z,99918.28
2023-03-21T05:42:08.302Z,99926.97
2023-03-21T05:45:31.780Z,99927.00
2023-03-21T05:48:53.866Z,99936.53
2023-03-21T05:52:15.877Z,99946.13
2023-03-21T05:55:38.484Z,99948.78
2023-03-21T05:59:00.334Z,99956.75
2023-03-21T06:02:23.791Z,99954.41
2023-03-21T06:05:45.569Z,99956.25
2023-03-21T06:09:08.512Z,99959.00
2023-03-21T06:12:30.035Z,99951.56
2023-03-21T06:15:51.838Z,99968.53
2023-03-21T06:19:15.040Z,99968.75
2023-03-21T06:22:37.653Z,99990.19
2023-03-21T06:25:59.444Z,99986.91
2023-03-21T06:29:21.185Z,99994.03
2023-03-21T06:32:43.317Z,99987.44
2023-03-21T06:36:06.950Z,100010.38
2023-03-21T06:39:29.126Z,100006.94
2023-03-21T06:42:50.665Z,99981.59
2023-03-21T06:46:12.672Z,100014.81
2023-03-21T06:49:34.537Z,100007.00
2023-03-21T06:52:59.520Z,100022.38
2023-03-21T06:56:21.406Z,100026.72
2023-03-21T06:59:43.067Z,100016.59
2023-03-21T07:03:04.806Z,100022.50
2023-03-21T07:06:28.201Z,100039.53
2023-03-21T07:09:51.436Z,100042.09
2023-03-21T07:13:13.935Z,100049.84
2023-03-21T07:16:35.851Z,100061.16
2023-03-21T07:19:58.509Z,100056.25
2023-03-21T07:23:21.812Z,100067.31
2023-03-21T07:26:45.643Z,100081.00
2023-03-21T07:30:08.580Z,100085.38
2023-03-21T07:33:30.683Z,100091.41
2023-03-21T07:36:52.433Z,100081.19
2023-03-21T07:40:14.472Z,100086.16
2023-03-21T07:43:39.172Z,100105.78
2023-03-21T07:47:01.608Z,100097.22
2023-03-21T07:50:23.498Z,100107.41
2023-03-21T07:53:48.717Z,100118.47
2023-03-21T07:57:13.135Z,100107.41
2023-03-21T08:00:36.687Z,100115.09
2023-03-21T08:03:58.594Z,100124.41
2023-03-21T08:07:20.920Z,100120.13
2023-03-21T08:10:44.105Z,100138.00
2023-03-21T08:14:06.230Z,100136.13
2023-03-21T08:17:29.703Z,100141.28
2023-03-21T08:20:53.659Z,100131.03
2023-03-21T08:24:15.662Z,100141.28
2023-03-21T08:27:37.517Z,100126.53
2023-03-21T08:30:59.493Z,100146.97
2023-03-21T08:34:23.250Z,100146.84
2023-03-21T08:37:45.448Z,100156.25
2023-03-21T08:41:07.826Z,100150.28
2023-03-21T08:44:29.681Z,100148.47
2023-03-21T08:47:51.833Z,100149.44
2023-03-21T08:51:15.402Z,100167.34
2023-03-21T08:54:37.294Z,100164.75
2023-03-21T08:57:59.481Z,100170.88
2023-03-21T09:01:21.403Z,100186.31
2023-03-21T09:04:43.907Z,100195.88
2023-03-21T09:08:07.300Z,100207.31
2023-03-21T09:11:29.162Z,100219.41
2023-03-21T09:14:50.998Z,100221.97
2023-03-21T09:18:16.461Z,100223.47
2023-03-21T09:21:38.465Z,100231.91
2023-03-21T09:25:08.486Z,100222.47
2023-03-21T09:28:31.297Z,100242.88
2023-03-21T09:31:54.546Z,100227.34
2023-03-21T09:35:18.870Z,100249.19
2023-03-21T09:38:40.825Z,100238.63
2023-03-21T09:42:21.135Z,100250.72
2023-03-21T09:45:52.662Z,100250.66
2023-03-21T09:49:20.561Z,100265.25
2023-03-21T09:52:48.267Z,100278.34
2023-03-21T09:56:14.092Z,100270.50
2023-03-21T09:59:40.494Z,100262.88
2023-03-21T10:03:07.010Z,100279.88
2023-03-21T10:06:30.682Z,100291.94
2023-03-21T10:09:53.577Z,100303.97
2023-03-21T10:13:20.754Z,100300.34
2023-03-21T10:16:46.722Z,100307.09
2023-03-21T10:20:15.584Z,100303.53
2023-03-21T10:23:37.334Z,100310.31
2023-03-21T10:26:59.366Z,100319.72
2023-03-21T10:30:29.412Z,100319.56
2023-03-21T10:33:54.136Z,100327.34
2023-03-21T10:37:17.761Z,100322.34
2023-03-21T10:40:39.765Z,100330.94
2023-03-21T10:44:11.758Z,100321.47
2023-03-21T10:47:35.405Z,100331.81
2023-03-21T10:50:58.748Z,100324.00
2023-03-21T10:54:23.512Z,100336.03
2023-03-21T10:57:46.926Z,100330.75
2023-03-21T11:01:14.946Z,100324.44
2023-03-21T11:04:38.702Z,100328.56
2023-03-21T11:08:05.425Z,100334.66
2023-03-21T11:11:29.063Z,100332.22
2023-03-21T11:14:51.618Z,100332.63
2023-03-21T11:18:20.588Z,100339.50
2023-03-21T11:21:42.537Z,100343.78
2023-03-21T11:25:09.690Z,100344.53
2023-03-21T11:28:37.987Z,100352.91
2023-03-21T11:32:02.971Z,100342.41
2023-03-21T11:35:26.740Z,100341.28
2023-03-21T11:38:51.551Z,100344.53
2023-03-21T11:42:29.790Z,100319.06
2023-03-21T11:45:58.881Z,100339.66
2023-03-21T11:49:21.484Z,100331.91
2023-03-21T11:52:50.228Z,100334.44
2023-03-21T11:56:26.052Z,100342.91
2023-03-21T11:59:57.794Z,100335.84
2023-03-21T12:03:49.375Z,100340.91
2023-03-21T12:07:26.571Z,100338.25
2023-03-21T12:10:56.567Z,100352.34
2023-03-21T12:14:26.054Z,100358.38
2023-03-21T12:17:59.825Z,100354.63
2023-03-21T12:21:27.922Z,100362.94
2023-03-21T12:24:55.018Z,100355.28
2023-03-21T12:28:33.122Z,100361.25
2023-03-21T12:32:12.314Z,100350.78
2023-03-21T12:35:48.577Z,100359.16
2023-03-21T12:39:22.303Z,100356.56
2023-03-21T12:42:59.521Z,100357.59
2023-03-21T12:46:28.692Z,100369.03
2023-03-21T12:49:55.834Z,100358.06
2023-03-21T12:53:31.181Z,100365.75
2023-03-21T12:56:58.535Z,100369.16
2023-03-21T13:00:24.167Z,100363.06
2023-03-21T13:03:51.186Z,100372.69
2023-03-21T13:07:20.233Z,100363.38
2023-03-21T13:10:45.859Z,100365.16
2023-03-21T13:14:16.414Z,100366.06
2023-03-21T13:17:45.160Z,100350.47
2023-03-21T13:21:15.201Z,100361.50
2023-03-21T13:24:43.904Z,100347.00
2023-03-21T13:28:07.275Z,100317.19
2023-03-21T13:31:33.883Z,100355.47
2023-03-21T13:35:14.552Z,100357.81
2023-03-21T13:38:42.394Z,100354.28
2023-03-21T13:42:07.046Z,100354.19
2023-03-21T13:45:33.759Z,100365.34
2023-03-21T13:49:01.191Z,100358.50
2023-03-21T13:52:29.496Z,100368.94
2023-03-21T13:56:11.483Z,100368.00
2023-03-21T13:59:42.868Z,100361.75
2023-03-21T14:03:14.595Z,100366.09
2023-03-21T14:06:42.870Z,100359.25
2023-03-21T14:10:07.972Z,100365.03
2023-03-21T14:13:33.041Z,100360.66
2023-03-21T14:16:57.109Z,100358.06
2023-03-21T14:20:24.569Z,100354.78
2023-03-21T14:23:46.597Z,100359.22
2023-03-21T14:27:10.170Z,100351.56
2023-03-21T14:30:35.448Z,100368.75
2023-03-21T14:34:00.008Z,100355.03
2023-03-21T14:37:32.457Z,100366.16
2023-03-21T14:40:56.217Z,100360.34
2023-03-21T14:44:25.605Z,100372.34
2023-03-21T14:47:55.588Z,100377.47
2023-03-21T14:51:17.496Z,100380.13
2023-03-21T14:54:43.859Z,100375.00
2023-03-21T14:58:06.791Z,100381.88
2023-03-21T15:01:32.822Z,100377.47
2023-03-21T15:04:58.105Z,100366.16
2023-03-21T15:08:21.891Z,100366.16
2023-03-21T15:11:51.647Z,100357.59
2023-03-21T15:15:17.595Z,100366.19
2023-03-21T15:18:42.031Z,100367.00
2023-03-21T15:22:12.935Z,100361.09
2023-03-21T15:25:37.822Z,100367.09
2023-03-21T15:29:02.614Z,100369.69
2023-03-21T15:32:27.561Z,100367.31
2023-03-21T15:35:54.305Z,100374.28
2023-03-21T15:39:19.994Z,100371.88
2023-03-21T15:42:43.050Z,100366.84
2023-03-21T15:46:15.335Z,100374.75
2023-03-21T15:49:41.945Z,100371.56
2023-03-21T15:53:07.145Z,100381.91
2023-03-21T15:56:35.045Z,100377.84
2023-03-21T16:00:00.690Z,100364.41
2023-03-21T16:03:27.700Z,100384.09
2023-03-21T16:06:55.199Z,100386.88
2023-03-21T16:10:28.785Z,100378.63
2023-03-21T16:13:51.176Z,100380.56
2023-03-21T16:17:27.688Z,100404.81
2023-03-21T16:20:51.083Z,100401.59
2023-03-21T16:24:13.675Z,100400.09
2023-03-21T16:27:35.761Z,100384.88
2023-03-21T16:30:59.088Z,100403.91
2023-03-21T16:34:20.884Z,100404.06
2023-03-21T16:37:45.277Z,100421.38
2023-03-21T16:41:10.780Z,100417.25
2023-03-21T16:44:33.914Z,100414.78
2023-03-21T16:47:56.238Z,100415.97
2023-03-21T16:51:20.578Z,100422.00
2023-03-21T16:54:44.442Z,100419.59
2023-03-21T16:58:06.858Z,100423.16
2023-03-21T17:01:30.198Z,100390.06
2023-03-21T17:04:52.291Z,100409.78
2023-03-21T17:08:17.004Z,100418.34
2023-03-21T17:11:41.824Z,100413.34
2023-03-21T17:15:04.039Z,100403.22
2023-03-21T17:18:25.968Z,100417.88
2023-03-21T17:21:47.943Z,100424.88
2023-03-21T17:25:09.985Z,100422.38
2023-03-21T17:28:33.216Z,100424.19
2023-03-21T17:31:55.102Z,100426.84
2023-03-21T17:35:17.799Z,100413.25
2023-03-21T17:38:39.504Z,100432.16
2023-03-21T17:42:01.183Z,100415.97
2023-03-21T17:45:24.958Z,100416.16
2023-03-21T17:48:47.329Z,100430.69
2023-03-21T17:52:09.160Z,100436.75
2023-03-21T17:55:31.549Z,100432.56
2023-03-21T17:58:53.387Z,100438.56
2023-03-21T18:02:18.418Z,100435.19
2023-03-21T18:05:40.660Z,100414.78
2023-03-21T18:09:08.067Z,100416.50
2023-03-21T18:12:29.861Z,100433.63
2023-03-21T18:15:52.988Z,100437.94
2023-03-21T18:19:16.467Z,100429.47
2023-03-21T18:22:38.325Z,100436.31
2023-03-21T18:26:00.707Z,100431.25
2023-03-21T18:33:05.021Z,100449.44
2023-03-21T18:36:29.142Z,100458.06
2023-03-21T18:39:50.773Z,100464.13
2023-03-21T18:44:00.453Z,100449.63
2023-03-21T18:46:54.788Z,100467.69
2023-03-21T18:50:16.801Z,100462.63
2023-03-21T18:53:40.248Z,100464.44
2023-03-21T19:00:44.825Z,100466.19
2023-03-21T19:04:20.788Z,100458.56
2023-03-21T19:07:44.743Z,100464.53
2023-03-21T19:11:09.282Z,100456.09
2023-03-21T19:14:31.232Z,100468.06
2023-03-21T19:21:36.958Z,100460.44
2023-03-21T19:24:58.980Z,100458.69
2023-03-21T19:28:21.971Z,100454.47
2023-03-21T19:31:45.878Z,100456.19
2023-03-21T19:35:08.137Z,100448.47
2023-03-21T19:38:30.060Z,100461.38
2023-03-21T19:41:55.345Z,100456.25
2023-03-21T19:45:25.065Z,100466.50
2023-03-21T19:48:47.816Z,100471.66
2023-03-21T19:52:10.151Z,100458.00
2023-03-21T19:55:32.436Z,100463.09
2023-03-21T19:58:54.224Z,100462.25
2023-03-21T20:02:34.676Z,100463.97
2023-03-21T20:06:04.291Z,100455.44
2023-03-21T20:09:53.795Z,100464.00
2023-03-21T20:13:08.239Z,100461.50
2023-03-21T20:16:34.757Z,100472.63
2023-03-21T20:20:00.102Z,100485.47
2023-03-21T20:23:22.531Z,100471.75
2023-03-21T20:26:45.263Z,100465.75
2023-03-21T20:30:10.732Z,100458.03
2023-03-21T20:33:33.567Z,100458.00
2023-03-21T20:36:58.176Z,100470.00
2023-03-21T20:40:21.728Z,100468.28
2023-03-21T20:44:39.251Z,100474.31
2023-03-21T20:47:25.484Z,100466.63
2023-03-21T20:50:47.272Z,100472.59
2023-03-21T20:54:11.342Z,100444.44
2023-03-21T20:57:34.268Z,100481.16
2023-03-21T21:00:59.450Z,100479.44
2023-03-21T21:04:22.836Z,100462.34
2023-03-21T21:07:46.154Z,100474.28
2023-03-21T21:12:02.541Z,100473.44
2023-03-21T21:14:51.252Z,100474.31
2023-03-21T21:18:13.526Z,100474.31
2023-03-21T21:21:35.386Z,100474.31
2023-03-21T21:24:57.205Z,100462.28
2023-03-21T21:28:21.384Z,100461.44
2023-03-21T21:31:44.595Z,100462.28
2023-03-21T21:35:09.981Z,100464.00
2023-03-21T21:38:34.851Z,100470.03
2023-03-21T21:41:56.749Z,100448.69
2023-03-21T21:45:20.282Z,100468.34
2023-03-21T21:48:42.755Z,100468.34
2023-03-21T21:52:06.165Z,100468.31
2023-03-21T21:55:27.897Z,100466.63
2023-03-21T21:58:53.362Z,100460.59
2023-03-21T22:02:17.062Z,100458.00
2023-03-21T22:05:39.449Z,100453.78
2023-03-21T22:09:01.201Z,100464.91
2023-03-21T22:12:23.243Z,100464.91
2023-03-21T22:15:46.952Z,100444.44
2023-03-21T22:19:10.520Z,100452.06
2023-03-21T22:22:32.158Z,100452.06
2023-03-21T22:25:54.314Z,100458.97
2023-03-21T22:29:16.298Z,100451.25
2023-03-21T22:32:39.759Z,100456.41
2023-03-21T22:36:03.041Z,100451.28
2023-03-21T22:39:26.533Z,100456.41
2023-03-21T22:42:48.373Z,100446.16
2023-03-21T22:46:10.494Z,100462.38
2023-03-21T22:49:33.076Z,100448.69
2023-03-21T22:52:56.592Z,100454.63
2023-03-21T22:56:19.173Z,100467.50
2023-03-21T22:59:41.295Z,100464.91
2023-03-21T23:03:03.465Z,100462.31
2023-03-21T23:06:25.389Z,100457.13
2023-03-21T23:09:48.847Z,100448.59
2023-03-21T23:13:11.525Z,100453.72
2023-03-21T23:16:34.901Z,100451.16
2023-03-21T23:19:56.517Z,100455.41
2023-03-21T23:23:18.389Z,100456.25
2023-03-21T23:26:41.637Z,100457.09
2023-03-21T23:30:05.064Z,100461.34
2023-03-21T23:33:27.148Z,100455.38
2023-03-21T23:36:48.717Z,100452.78
2023-03-21T23:40:12.695Z,100450.22
2023-03-21T23:43:36.363Z,100449.38
2023-03-21T23:46:58.438Z,100451.91
2023-03-21T23:50:20.338Z,100434.78
2023-03-21T23:53:42.506Z,100444.19
2023-03-21T23:57:04.739Z,100439.91
